首页
METAR-TAF:

METAR-TAF

机场 :

Watertown, 紐約州, 美国

纬度: 43-59-31N, 经度: 076-01-18W, 海拔: 99米

当前天气观测

该预报发布于1小时和36分钟前的14:56 UTC
风速13节,风向北转东北,有时为22节阵风
温度 12°C
湿度 40%
气压 1023 hPa
能見度: 16.1公里
天空无云

METAR: KART 181456Z AUTO 03013G22KT 10SM CLR 12/M01 A3020 RMK AO2 SLP226 T01221006 51011 $

时间: 12:32 (16:32 UTC)

预报

该预报发布于1小时和5分钟前的15:27 UTC
预报有效从18日的 15点(UTC)到 19日的 12点(UTC)
风速11节,风向北转东北,有时为22节阵风
能見度: 10公里
天空无云
从 18日的 2300点(UTC)
风速9节,风向
能見度: 10公里
天空无云
从 19日的 0300点(UTC)
风速5节,风向北转东北
能見度: 10公里
天空无云
从 19日的 0700点(UTC)
风速4节,风向东北
能見度: 10公里
天空无云

TAF: KART 181527Z 1815/1912 03011G22KT P6SM SKC FM182300 36009KT P6SM SKC FM190300 02005KT P6SM SKC FM190700 05004KT P6SM SKC

超过4000个机场的气象观测和天气预报(METAR&TAF报告)。

可查询的气象台以黄色和红色小点在地图上表示。

将鼠标移到小点上方,可查看气象台名称。

然后点击查看天气观测和预报。

如需切换地图:点击带黑十字的绿色按钮放大地图;点击带横线的绿色按钮缩小地图;或者点击绿色箭头查看邻近地区的地图。


METAR-TAF: